Time;durP1;ratioP1;P1;durP2;ratioP2;P2;SDS_P1;SDS_P2;PMS_P1;PMS_P2;Temp;Humidity;BMP_temperature;BMP_pressure;BME280_temperature;BME280_humidity;BME280_pressure;Samples;Min_cycle;Max_cycle;Signal;HPM_P1;HPM_P2
2023/04/24 00:02:06;;;;;;;2.60;0.90;;;12.60;99.90;;;;;;5009026;28;20651;-75
2023/04/24 00:04:33;;;;;;;1.00;0.80;;;12.50;99.90;;;;;;4984803;28;20943;-75
2023/04/24 00:07:06;;;;;;;1.20;0.80;;;12.40;99.90;;;;;;5022455;28;20537;-74
2023/04/24 00:09:33;;;;;;;1.10;0.83;;;12.40;99.90;;;;;;5031639;28;20468;-75
2023/04/24 00:12:02;;;;;;;1.43;0.83;;;12.40;99.90;;;;;;5027264;28;20480;-75
2023/04/24 00:14:31;;;;;;;1.10;0.87;;;12.40;99.90;;;;;;5018917;28;20487;-74
2023/04/24 00:16:58;;;;;;;1.00;0.70;;;12.40;99.90;;;;;;5019386;28;20552;-75
2023/04/24 00:19:25;;;;;;;1.17;0.80;;;12.40;99.90;;;;;;4995011;28;20517;-77
2023/04/24 00:21:52;;;;;;;1.37;0.70;;;12.40;99.90;;;;;;5022964;28;20564;-75
2023/04/24 00:24:21;;;;;;;1.43;1.00;;;12.40;99.90;;;;;;5017969;28;20563;-75
2023/04/24 00:26:48;;;;;;;2.07;1.23;;;12.40;99.90;;;;;;5021361;28;20467;-75
2023/04/24 00:29:17;;;;;;;1.30;1.10;;;12.50;99.90;;;;;;5018202;28;20560;-74
2023/04/24 00:31:44;;;;;;;1.23;0.87;;;12.60;99.90;;;;;;5017457;28;20431;-75
2023/04/24 00:34:12;;;;;;;1.20;0.90;;;12.40;99.90;;;;;;5023194;28;20550;-75
2023/04/24 00:36:41;;;;;;;1.30;0.90;;;12.30;99.90;;;;;;5020774;28;20457;-75
2023/04/24 00:39:08;;;;;;;1.27;0.90;;;12.10;99.90;;;;;;5028533;28;20530;-76
2023/04/24 00:41:39;;;;;;;2.40;1.00;;;12.20;99.90;;;;;;5029561;28;20480;-76
2023/04/24 00:44:07;;;;;;;1.10;0.90;;;12.20;99.90;;;;;;5033566;28;20484;-74
2023/04/24 00:46:35;;;;;;;1.13;0.90;;;12.10;99.90;;;;;;5015631;28;20536;-74
2023/04/24 00:49:03;;;;;;;2.17;0.93;;;12.00;99.90;;;;;;5031061;28;20842;-75
2023/04/24 00:51:30;;;;;;;1.30;0.90;;;12.00;99.90;;;;;;5034409;28;20449;-76
2023/04/24 00:53:57;;;;;;;1.20;0.90;;;12.00;99.90;;;;;;5026789;28;20484;-75
2023/04/24 00:56:26;;;;;;;1.60;0.90;;;11.90;99.90;;;;;;5021944;28;20540;-75
2023/04/24 00:58:55;;;;;;;1.30;1.17;;;11.90;99.90;;;;;;4995960;28;20536;-75
2023/04/24 01:01:23;;;;;;;1.30;0.90;;;11.90;99.90;;;;;;5017157;28;20512;-76
2023/04/24 01:03:52;;;;;;;1.30;0.97;;;11.90;99.90;;;;;;5016663;28;20871;-75
2023/04/24 01:06:20;;;;;;;1.13;0.93;;;11.90;99.90;;;;;;5027571;28;21174;-75
2023/04/24 01:08:51;;;;;;;2.63;1.43;;;11.90;99.90;;;;;;5028331;28;20534;-75
2023/04/24 01:11:23;;;;;;;1.87;1.60;;;11.80;99.90;;;;;;5023952;28;20560;-75
2023/04/24 01:13:50;;;;;;;1.20;0.90;;;11.70;99.90;;;;;;5003870;28;20558;-75
2023/04/24 01:16:20;;;;;;;1.20;0.90;;;11.60;99.90;;;;;;5012365;28;20455;-76
2023/04/24 01:18:48;;;;;;;1.30;0.90;;;11.70;99.90;;;;;;5018523;28;20473;-76
2023/04/24 01:21:16;;;;;;;1.13;0.97;;;11.60;99.90;;;;;;5025978;28;20480;-75
2023/04/24 01:23:44;;;;;;;1.20;0.90;;;11.60;99.90;;;;;;5027114;28;20518;-75
2023/04/24 01:26:12;;;;;;;1.33;0.70;;;11.60;99.90;;;;;;5020118;28;20485;-75
2023/04/24 01:28:39;;;;;;;3.80;3.50;;;11.50;99.90;;;;;;5026258;28;20466;-75
2023/04/24 01:31:06;;;;;;;3.23;1.27;;;11.60;99.90;;;;;;5022278;28;20518;-74
2023/04/24 01:33:34;;;;;;;1.20;1.00;;;11.50;99.90;;;;;;5026555;28;20499;-75
2023/04/24 01:36:01;;;;;;;1.40;1.10;;;11.50;99.90;;;;;;5033227;28;21252;-75
2023/04/24 01:38:28;;;;;;;1.40;1.00;;;11.50;99.90;;;;;;5023009;28;20539;-74
2023/04/24 01:40:58;;;;;;;1.17;0.83;;;11.50;99.90;;;;;;5019233;28;20464;-74
2023/04/24 01:43:27;;;;;;;1.33;1.00;;;11.40;99.90;;;;;;5018121;28;20555;-75
2023/04/24 01:45:54;;;;;;;3.03;1.27;;;11.40;99.90;;;;;;5026801;28;20491;-75
2023/04/24 01:48:21;;;;;;;1.53;1.17;;;11.60;99.90;;;;;;5038886;28;20526;-74
2023/04/24 01:50:49;;;;;;;1.50;1.30;;;11.60;99.90;;;;;;5022786;28;21042;-74
2023/04/24 01:53:17;;;;;;;2.07;1.67;;;11.60;99.90;;;;;;5028851;28;20530;-74
2023/04/24 01:55:44;;;;;;;3.30;1.63;;;11.50;99.90;;;;;;5030766;28;20468;-74
2023/04/24 01:58:12;;;;;;;1.47;1.37;;;11.40;99.90;;;;;;5021165;28;20432;-75
2023/04/24 02:00:40;;;;;;;1.40;1.00;;;11.30;99.90;;;;;;5026746;28;21018;-74
2023/04/24 02:03:09;;;;;;;1.97;1.30;;;11.30;99.90;;;;;;5020609;28;20544;-75
2023/04/24 02:05:35;;;;;;;2.17;1.70;;;11.30;99.90;;;;;;5028015;28;20448;-74
2023/04/24 02:08:03;;;;;;;3.63;1.87;;;11.30;99.90;;;;;;5025803;28;20490;-73
2023/04/24 02:10:30;;;;;;;2.87;1.70;;;11.30;99.90;;;;;;4971625;28;20448;-74
2023/04/24 02:13:01;;;;;;;3.33;2.20;;;11.10;99.90;;;;;;5032220;28;20477;-74
2023/04/24 02:15:30;;;;;;;1.60;1.33;;;11.00;99.90;;;;;;5010423;28;20949;-74
2023/04/24 02:17:57;;;;;;;2.83;2.00;;;11.00;99.90;;;;;;5020596;28;20456;-75
2023/04/24 02:20:24;;;;;;;2.73;1.80;;;10.90;99.90;;;;;;5028287;28;20495;-74
2023/04/24 02:22:52;;;;;;;1.87;1.10;;;10.90;99.90;;;;;;5020161;28;20546;-75
2023/04/24 02:25:19;;;;;;;1.63;1.27;;;10.90;99.90;;;;;;5023789;28;20543;-74
2023/04/24 02:27:46;;;;;;;1.83;1.53;;;10.90;99.90;;;;;;5024880;28;20949;-74
2023/04/24 02:30:14;;;;;;;2.20;1.30;;;10.80;99.90;;;;;;5027220;28;20950;-73
2023/04/24 02:32:42;;;;;;;1.93;1.40;;;10.90;99.90;;;;;;5028285;28;20578;-74
2023/04/24 02:35:10;;;;;;;1.60;1.47;;;10.90;99.90;;;;;;5024672;28;20962;-74
2023/04/24 02:37:37;;;;;;;2.90;1.50;;;10.80;99.90;;;;;;5027462;28;20464;-74
2023/04/24 02:40:07;;;;;;;2.73;1.63;;;10.80;99.90;;;;;;5026384;28;20452;-75
2023/04/24 02:42:33;;;;;;;1.90;1.60;;;10.80;99.90;;;;;;5035953;28;20459;-75
2023/04/24 02:45:00;;;;;;;3.13;1.77;;;10.60;99.90;;;;;;5034422;28;20520;-75
2023/04/24 02:47:28;;;;;;;5.37;2.60;;;10.50;99.90;;;;;;5036891;28;20532;-75
2023/04/24 02:50:00;;;;;;;3.17;2.50;;;10.50;99.90;;;;;;5035706;28;20464;-75
2023/04/24 02:52:28;;;;;;;2.93;2.70;;;10.40;99.90;;;;;;5031540;28;20439;-74
2023/04/24 02:54:55;;;;;;;5.00;3.23;;;10.40;99.90;;;;;;5030256;28;20886;-74
2023/04/24 02:57:23;;;;;;;4.00;2.93;;;10.30;99.90;;;;;;5028354;28;20449;-75
2023/04/24 02:59:50;;;;;;;4.60;2.60;;;10.40;99.90;;;;;;5007925;28;20558;-75
2023/04/24 03:02:20;;;;;;;5.27;3.50;;;10.40;99.90;;;;;;5029516;28;20802;-73
2023/04/24 03:04:49;;;;;;;2.13;1.93;;;10.40;99.90;;;;;;4998612;28;21044;-74
2023/04/24 03:07:20;;;;;;;3.07;2.60;;;10.50;99.90;;;;;;5027386;28;20520;-76
2023/04/24 03:09:47;;;;;;;7.47;2.67;;;10.50;99.90;;;;;;5026831;28;20487;-74
2023/04/24 03:12:16;;;;;;;3.70;2.33;;;10.50;99.90;;;;;;5027400;28;20500;-74
2023/04/24 03:14:44;;;;;;;6.57;3.03;;;10.50;99.90;;;;;;5026203;28;20452;-74
2023/04/24 03:17:11;;;;;;;3.50;2.73;;;10.50;99.90;;;;;;5031329;28;20441;-74
2023/04/24 03:19:38;;;;;;;4.70;2.63;;;10.60;99.90;;;;;;5027793;28;20969;-74
2023/04/24 03:22:05;;;;;;;7.83;2.87;;;10.60;99.90;;;;;;5028387;28;20559;-73
2023/04/24 03:24:34;;;;;;;6.90;4.30;;;10.50;99.90;;;;;;5035244;28;20484;-72
2023/04/24 03:27:01;;;;;;;5.23;3.47;;;10.50;99.90;;;;;;5031271;28;21033;-74
2023/04/24 03:29:28;;;;;;;14.40;5.30;;;10.50;99.90;;;;;;5025187;28;20482;-73
2023/04/24 03:31:55;;;;;;;5.33;4.83;;;10.60;99.90;;;;;;5015415;28;21417;-74
2023/04/24 03:34:25;;;;;;;9.20;3.73;;;10.60;99.90;;;;;;5028683;28;20530;-74
2023/04/24 03:36:52;;;;;;;4.57;3.40;;;10.70;99.90;;;;;;5020373;28;20849;-75
2023/04/24 03:39:19;;;;;;;9.53;5.53;;;10.80;99.90;;;;;;5024631;28;20463;-75
2023/04/24 03:41:48;;;;;;;5.57;3.20;;;10.70;99.90;;;;;;5034804;28;20448;-74
2023/04/24 03:44:15;;;;;;;4.50;4.10;;;10.70;99.90;;;;;;5021834;28;20568;-74
2023/04/24 03:46:41;;;;;;;7.00;4.17;;;10.70;99.90;;;;;;5022742;28;20553;-74
2023/04/24 03:49:09;;;;;;;3.07;2.23;;;10.80;99.90;;;;;;5027215;28;20482;-75
2023/04/24 03:51:36;;;;;;;8.30;4.23;;;10.70;99.90;;;;;;5023955;28;20430;-76
2023/04/24 03:54:03;;;;;;;7.30;4.17;;;10.70;99.90;;;;;;5015150;28;20879;-75
2023/04/24 03:56:31;;;;;;;5.20;2.60;;;10.70;99.90;;;;;;5021538;28;20488;-75
2023/04/24 03:58:59;;;;;;;6.37;3.27;;;10.80;99.90;;;;;;4978433;28;20998;-75
2023/04/24 04:01:28;;;;;;;4.80;3.70;;;10.80;99.90;;;;;;5018310;28;20766;-76
2023/04/24 04:03:58;;;;;;;6.13;3.70;;;10.80;99.90;;;;;;5013836;28;20554;-75
2023/04/24 04:06:28;;;;;;;7.23;4.60;;;10.80;99.90;;;;;;4968933;28;20589;-75
2023/04/24 04:08:56;;;;;;;7.33;4.70;;;10.80;99.90;;;;;;5010097;28;20471;-75
2023/04/24 04:11:26;;;;;;;5.40;4.10;;;11.00;99.90;;;;;;5011781;28;20463;-72
2023/04/24 04:13:54;;;;;;;3.60;3.30;;;10.80;99.90;;;;;;5023342;28;20841;-75
2023/04/24 04:16:22;;;;;;;10.37;3.30;;;10.80;99.90;;;;;;5026169;28;20476;-75
2023/04/24 04:18:49;;;;;;;10.97;4.53;;;10.70;99.90;;;;;;5016438;28;20471;-75
2023/04/24 04:21:19;;;;;;;13.30;5.50;;;10.70;99.90;;;;;;5017453;28;20536;-74
2023/04/24 04:23:46;;;;;;;4.93;4.00;;;10.70;99.90;;;;;;5017600;28;20484;-73
2023/04/24 04:26:13;;;;;;;6.37;4.13;;;10.70;99.90;;;;;;5025599;28;20555;-75
2023/04/24 04:28:40;;;;;;;9.27;4.90;;;10.70;99.90;;;;;;5024753;28;20538;-75
2023/04/24 04:31:09;;;;;;;5.60;3.30;;;10.80;99.90;;;;;;5022569;28;20479;-75
2023/04/24 04:33:38;;;;;;;4.00;3.47;;;10.80;99.90;;;;;;5019084;28;20926;-73
2023/04/24 04:36:05;;;;;;;7.97;4.90;;;10.70;99.90;;;;;;5025122;28;20461;-73
2023/04/24 04:38:33;;;;;;;6.23;3.77;;;10.70;99.90;;;;;;5021232;28;20456;-74
2023/04/24 04:41:02;;;;;;;4.77;3.93;;;10.80;99.90;;;;;;5024591;28;20461;-75
2023/04/24 04:43:32;;;;;;;5.80;3.20;;;10.80;99.90;;;;;;5023826;28;20487;-74
2023/04/24 04:46:00;;;;;;;8.50;5.30;;;10.80;99.90;;;;;;5027531;28;20422;-76
2023/04/24 04:48:28;;;;;;;6.20;4.83;;;10.80;99.90;;;;;;5028213;28;20438;-75
2023/04/24 04:50:58;;;;;;;5.03;3.30;;;10.70;99.90;;;;;;4984949;28;21078;-75
2023/04/24 04:53:26;;;;;;;4.90;3.87;;;10.70;99.90;;;;;;5038785;28;20480;-76
2023/04/24 04:55:53;;;;;;;4.23;3.83;;;10.70;99.90;;;;;;5034638;28;20573;-75
2023/04/24 04:58:21;;;;;;;6.17;3.43;;;10.80;99.90;;;;;;5024678;28;20442;-72
2023/04/24 05:00:48;;;;;;;10.23;4.87;;;10.70;99.90;;;;;;4981578;28;20440;-73
2023/04/24 05:03:15;;;;;;;4.70;4.30;;;10.70;99.90;;;;;;5030227;28;20939;-73
2023/04/24 05:05:42;;;;;;;6.70;3.77;;;10.70;99.90;;;;;;5024379;28;20555;-75
2023/04/24 05:08:11;;;;;;;7.30;3.67;;;10.80;99.90;;;;;;5024971;28;20815;-75
2023/04/24 05:10:38;;;;;;;9.30;4.70;;;10.80;99.90;;;;;;5003359;28;20490;-76
2023/04/24 05:13:05;;;;;;;8.03;5.33;;;10.70;99.90;;;;;;4988086;28;21232;-73
2023/04/24 05:15:35;;;;;;;5.43;3.50;;;10.80;99.90;;;;;;5027926;28;20411;-73
2023/04/24 05:18:02;;;;;;;6.23;3.73;;;10.80;99.90;;;;;;5019294;28;20473;-75
2023/04/24 05:20:29;;;;;;;7.33;5.10;;;10.70;99.90;;;;;;5029530;28;20493;-76
2023/04/24 05:22:57;;;;;;;8.40;4.13;;;10.60;99.90;;;;;;5029521;28;20572;-75
2023/04/24 05:25:25;;;;;;;5.60;4.23;;;10.60;99.90;;;;;;5019806;28;20521;-75
2023/04/24 05:27:54;;;;;;;5.30;3.40;;;10.70;99.90;;;;;;5027034;28;20491;-75
2023/04/24 05:30:22;;;;;;;4.70;3.53;;;10.80;99.90;;;;;;5022779;28;20499;-75
2023/04/24 05:32:49;;;;;;;5.03;3.43;;;10.90;99.90;;;;;;5011550;28;20472;-73
2023/04/24 05:35:16;;;;;;;6.47;5.30;;;10.90;99.90;;;;;;5000897;28;20499;-75
2023/04/24 05:37:43;;;;;;;7.23;4.03;;;10.90;99.90;;;;;;5020116;28;20469;-75
2023/04/24 05:40:11;;;;;;;6.60;3.40;;;11.10;99.90;;;;;;5018196;28;20563;-73
2023/04/24 05:42:41;;;;;;;3.50;3.10;;;11.00;99.90;;;;;;5026779;28;20480;-75
2023/04/24 05:45:11;;;;;;;2.97;2.50;;;10.90;99.90;;;;;;5030766;28;20528;-74
2023/04/24 05:47:39;;;;;;;7.60;4.43;;;11.00;99.90;;;;;;5022713;28;20951;-75
2023/04/24 05:50:07;;;;;;;5.30;2.50;;;11.00;99.90;;;;;;5016719;28;20494;-74
2023/04/24 05:52:34;;;;;;;4.67;3.60;;;11.00;99.90;;;;;;5019512;28;20579;-73
2023/04/24 05:55:01;;;;;;;4.07;3.23;;;10.90;99.90;;;;;;5031684;28;20451;-75
2023/04/24 05:57:30;;;;;;;11.33;4.30;;;10.90;99.90;;;;;;5033761;28;20484;-73
2023/04/24 05:59:58;;;;;;;2.60;2.33;;;10.90;99.90;;;;;;5021510;28;20510;-74
2023/04/24 06:02:25;;;;;;;3.50;3.20;;;10.90;99.90;;;;;;5005056;28;20435;-74
2023/04/24 06:04:52;;;;;;;3.70;3.33;;;10.70;99.90;;;;;;5019789;28;20488;-74
2023/04/24 06:07:21;;;;;;;5.27;4.17;;;10.50;99.90;;;;;;5025772;28;20435;-74
2023/04/24 06:09:48;;;;;;;8.40;4.60;;;10.40;99.90;;;;;;5026238;28;20478;-74
2023/04/24 06:12:15;;;;;;;4.90;3.67;;;10.20;99.90;;;;;;5019020;28;21059;-74
2023/04/24 06:14:42;;;;;;;3.40;3.10;;;10.20;99.90;;;;;;5017982;28;20619;-74
2023/04/24 06:17:11;;;;;;;6.43;3.70;;;10.20;99.90;;;;;;5031808;28;20456;-74
2023/04/24 06:19:38;;;;;;;4.13;3.43;;;10.30;99.90;;;;;;5025799;28;20540;-75
2023/04/24 06:22:06;;;;;;;4.57;2.60;;;10.30;99.90;;;;;;5020961;28;21204;-72
2023/04/24 06:24:33;;;;;;;6.10;3.40;;;10.20;99.90;;;;;;5022614;28;20920;-75
2023/04/24 06:27:01;;;;;;;9.77;3.60;;;10.10;99.90;;;;;;5014729;28;20471;-75
2023/04/24 06:29:28;;;;;;;11.83;3.03;;;10.10;99.90;;;;;;5022540;28;20794;-75
2023/04/24 06:31:55;;;;;;;2.60;2.27;;;10.20;99.90;;;;;;5040067;28;20444;-74
2023/04/24 06:34:23;;;;;;;7.53;3.80;;;10.20;99.90;;;;;;5010631;28;20439;-76
2023/04/24 06:36:50;;;;;;;3.87;3.57;;;10.30;99.90;;;;;;5014572;28;20808;-74
2023/04/24 06:39:17;;;;;;;5.90;3.30;;;10.40;99.90;;;;;;5023900;28;20468;-75
2023/04/24 06:41:46;;;;;;;4.57;3.43;;;10.30;99.90;;;;;;5021922;28;20514;-76
2023/04/24 06:44:15;;;;;;;9.00;3.80;;;10.30;99.90;;;;;;5020435;28;20487;-75
2023/04/24 06:46:42;;;;;;;4.10;3.47;;;10.20;99.90;;;;;;5022164;28;20481;-75
2023/04/24 06:49:11;;;;;;;3.80;2.93;;;10.20;99.90;;;;;;5023647;28;20545;-75
2023/04/24 06:51:42;;;;;;;3.03;2.50;;;10.20;99.90;;;;;;5013788;28;20553;-76
2023/04/24 06:54:12;;;;;;;4.47;3.40;;;10.30;99.90;;;;;;5023564;28;20476;-76
2023/04/24 06:56:45;;;;;;;2.80;1.93;;;10.40;99.90;;;;;;5027042;28;20929;-75
2023/04/24 06:59:22;;;;;;;3.47;2.70;;;10.50;99.90;;;;;;5025534;28;20569;-74
2023/04/24 07:01:49;;;;;;;12.60;2.50;;;10.60;99.90;;;;;;5018242;28;20460;-75
2023/04/24 07:04:16;;;;;;;2.20;1.87;;;10.50;99.90;;;;;;5016631;28;20484;-72
2023/04/24 07:06:45;;;;;;;1.43;0.90;;;10.50;99.90;;;;;;5023511;28;20493;-74
2023/04/24 07:09:15;;;;;;;4.07;3.10;;;10.50;99.90;;;;;;5026531;28;20460;-75
2023/04/24 07:11:44;;;;;;;3.20;2.83;;;10.60;99.90;;;;;;5017549;28;20446;-75
2023/04/24 07:14:11;;;;;;;2.60;2.40;;;10.70;99.90;;;;;;5014582;28;20480;-75
2023/04/24 07:16:39;;;;;;;8.00;3.23;;;10.70;99.90;;;;;;5018194;28;20491;-76
2023/04/24 07:19:06;;;;;;;6.27;3.50;;;10.70;99.90;;;;;;5017553;28;20449;-75
2023/04/24 07:21:33;;;;;;;3.00;1.90;;;10.50;99.90;;;;;;5029412;28;20526;-76
2023/04/24 07:24:02;;;;;;;3.33;2.93;;;10.60;99.90;;;;;;5015335;28;20711;-75
2023/04/24 07:26:31;;;;;;;2.13;1.93;;;10.60;99.90;;;;;;5005882;28;20817;-76
2023/04/24 07:28:58;;;;;;;2.57;2.10;;;10.60;99.90;;;;;;5032752;28;20460;-72
2023/04/24 07:31:29;;;;;;;2.33;1.70;;;10.70;99.90;;;;;;5024399;28;21041;-76
2023/04/24 07:33:57;;;;;;;7.20;2.50;;;10.60;99.90;;;;;;4995992;28;20483;-75
2023/04/24 07:36:25;;;;;;;1.87;1.30;;;10.40;99.90;;;;;;5002254;28;20459;-75
2023/04/24 07:38:53;;;;;;;2.93;2.13;;;10.50;99.90;;;;;;5025239;28;20929;-76
2023/04/24 07:41:21;;;;;;;1.70;1.57;;;10.30;99.90;;;;;;5025381;28;21014;-76
2023/04/24 07:43:48;;;;;;;2.00;1.23;;;10.40;99.90;;;;;;5027365;28;20863;-76
2023/04/24 07:46:15;;;;;;;3.87;1.77;;;10.20;99.90;;;;;;5019358;28;20861;-76
2023/04/24 07:48:42;;;;;;;2.20;2.00;;;10.20;99.90;;;;;;5021891;28;20461;-75
2023/04/24 07:51:13;;;;;;;2.60;2.13;;;10.30;99.90;;;;;;4977648;28;20576;-75
2023/04/24 07:53:40;;;;;;;2.00;1.57;;;10.30;99.90;;;;;;5024595;28;21050;-76
2023/04/24 07:56:07;;;;;;;2.60;1.30;;;10.30;99.90;;;;;;4999015;28;20512;-75
2023/04/24 07:58:36;;;;;;;3.13;1.37;;;10.30;99.90;;;;;;5014960;28;20584;-77
2023/04/24 08:01:04;;;;;;;1.60;1.10;;;10.30;99.90;;;;;;5025015;28;20431;-75
2023/04/24 08:03:31;;;;;;;2.10;1.13;;;10.30;99.90;;;;;;5024302;28;20490;-75
2023/04/24 08:05:58;;;;;;;1.10;0.90;;;10.30;99.90;;;;;;5024421;28;20441;-75
2023/04/24 08:08:25;;;;;;;2.00;1.37;;;10.10;99.90;;;;;;5012620;28;20471;-74
2023/04/24 08:10:54;;;;;;;1.70;1.40;;;10.10;99.90;;;;;;5016918;28;20456;-73
2023/04/24 08:13:21;;;;;;;2.40;1.90;;;10.00;99.90;;;;;;5017253;28;20497;-75
2023/04/24 08:15:50;;;;;;;1.83;1.10;;;10.10;99.90;;;;;;5024738;28;20502;-74
2023/04/24 08:18:17;;;;;;;1.80;1.17;;;10.10;99.90;;;;;;5024746;28;20452;-74
2023/04/24 08:20:45;;;;;;;1.80;1.17;;;10.20;99.90;;;;;;5024219;28;20538;-75
2023/04/24 08:23:12;;;;;;;2.27;1.57;;;10.30;99.90;;;;;;5019831;28;20483;-76
2023/04/24 08:25:39;;;;;;;1.70;1.17;;;10.40;99.90;;;;;;5008225;28;20549;-74
2023/04/24 08:28:12;;;;;;;1.50;0.80;;;10.60;99.90;;;;;;5031932;28;20449;-75
2023/04/24 08:30:39;;;;;;;1.80;1.17;;;10.50;99.90;;;;;;5018236;28;20468;-73
2023/04/24 08:33:08;;;;;;;1.00;0.80;;;10.70;99.90;;;;;;5017374;28;20481;-74
2023/04/24 08:35:35;;;;;;;1.10;0.80;;;10.60;99.90;;;;;;5017581;28;20468;-75
2023/04/24 08:38:02;;;;;;;1.50;0.97;;;10.60;99.90;;;;;;5024050;28;21612;-75
2023/04/24 08:40:33;;;;;;;1.30;1.07;;;10.60;99.90;;;;;;5031991;28;20577;-73
2023/04/24 08:43:02;;;;;;;1.00;0.80;;;10.80;99.90;;;;;;5026083;28;20481;-74
2023/04/24 08:45:31;;;;;;;2.10;1.27;;;10.60;99.90;;;;;;5015496;28;20487;-75
2023/04/24 08:48:01;;;;;;;1.40;0.90;;;10.20;99.90;;;;;;5016185;28;20941;-75
2023/04/24 08:50:30;;;;;;;2.57;1.00;;;10.10;99.90;;;;;;5020269;28;20533;-75
2023/04/24 08:52:58;;;;;;;1.10;0.90;;;10.10;99.90;;;;;;5017373;28;20623;-76
2023/04/24 08:55:26;;;;;;;1.20;0.80;;;10.00;99.90;;;;;;5018019;28;20434;-74
2023/04/24 08:57:54;;;;;;;1.10;0.80;;;10.10;99.90;;;;;;5017546;28;20537;-76
2023/04/24 09:00:24;;;;;;;9.17;1.33;;;10.10;99.90;;;;;;5022902;28;20892;-75
2023/04/24 09:02:55;;;;;;;1.10;1.00;;;10.00;99.90;;;;;;4978421;28;21119;-73
2023/04/24 09:05:24;;;;;;;1.03;0.77;;;9.70;99.90;;;;;;5015218;28;20477;-72
2023/04/24 09:07:56;;;;;;;1.47;1.37;;;9.80;99.90;;;;;;5013732;28;20820;-76
2023/04/24 09:10:30;;;;;;;2.20;1.40;;;9.90;99.90;;;;;;5012297;28;20834;-73
2023/04/24 09:13:01;;;;;;;1.60;1.40;;;9.90;99.90;;;;;;5012111;28;20481;-75
2023/04/24 09:15:38;;;;;;;1.70;1.03;;;10.00;99.90;;;;;;5012469;28;20734;-75
2023/04/24 09:21:53;;;;;;;2.50;1.23;;;9.70;99.90;;;;;;5008729;28;20461;-74
2023/04/24 09:27:51;;;;;;;2.13;1.87;;;9.80;99.90;;;;;;5000052;28;20555;-76
2023/04/24 09:30:56;;;;;;;2.00;1.77;;;10.00;99.90;;;;;;5019345;28;20460;-76
2023/04/24 09:33:44;;;;;;;2.27;1.53;;;10.20;99.90;;;;;;5018846;28;20597;-75
2023/04/24 09:36:42;;;;;;;1.50;1.40;;;10.20;99.90;;;;;;5011773;28;20457;-75
2023/04/24 09:45:25;;;;;;;2.00;1.90;;;10.40;99.90;;;;;;5023274;28;20548;-76
2023/04/24 09:47:56;;;;;;;2.23;1.77;;;10.50;99.90;;;;;;5016303;28;20826;-75
2023/04/24 09:50:31;;;;;;;1.83;1.47;;;10.50;99.90;;;;;;5015342;28;20921;-76
2023/04/24 09:59:44;;;;;;;2.50;2.30;;;10.50;99.90;;;;;;4966165;28;20474;-76
2023/04/24 10:05:38;;;;;;;5.83;1.83;;;10.60;99.90;;;;;;4937407;28;20494;-73
2023/04/24 10:08:50;;;;;;;2.00;1.40;;;10.30;99.90;;;;;;5014973;28;20993;-74
2023/04/24 10:11:48;;;;;;;1.10;0.97;;;10.00;99.90;;;;;;5012504;28;20510;-76
2023/04/24 10:14:31;;;;;;;3.30;1.47;;;10.00;99.90;;;;;;4990851;28;21198;-76
2023/04/24 10:17:09;;;;;;;1.50;1.40;;;10.00;99.90;;;;;;5015627;28;20493;-76
2023/04/24 10:19:57;;;;;;;1.20;0.87;;;10.00;99.90;;;;;;5028214;28;20962;-75
2023/04/24 10:22:45;;;;;;;2.57;1.83;;;10.00;99.90;;;;;;5021086;28;20475;-73
2023/04/24 10:25:14;;;;;;;2.70;1.73;;;9.90;99.90;;;;;;5017666;28;21004;-75
2023/04/24 10:28:12;;;;;;;3.83;2.33;;;9.80;99.90;;;;;;5020572;28;20496;-76
2023/04/24 10:36:43;;;;;;;2.60;1.40;;;9.80;99.90;;;;;;5017769;28;20491;-73
2023/04/24 10:39:26;;;;;;;4.57;1.90;;;9.80;99.90;;;;;;5009594;28;20456;-75
2023/04/24 10:42:34;;;;;;;2.13;1.73;;;9.90;99.90;;;;;;5014558;28;20506;-77
2023/04/24 10:45:31;;;;;;;3.10;2.90;;;9.80;99.90;;;;;;5018030;28;20504;-75
2023/04/24 10:48:41;;;;;;;2.97;2.07;;;9.80;99.90;;;;;;5019475;28;20454;-76
2023/04/24 10:55:55;;;;;;;2.73;2.40;;;10.00;99.90;;;;;;4962079;28;20414;-75
2023/04/24 10:59:13;;;;;;;;;;;;;;;;;;;;;
2023/04/24 11:01:43;;;;;;;3.73;2.80;;;10.20;99.90;;;;;;5008798;28;20459;-75
2023/04/24 11:07:22;;;;;;;2.23;1.70;;;10.00;99.90;;;;;;4948818;28;20814;-72
2023/04/24 11:10:08;;;;;;;1.93;1.73;;;10.00;99.90;;;;;;5014462;28;20463;-75
2023/04/24 11:12:42;;;;;;;3.33;2.37;;;9.70;99.90;;;;;;5014544;28;20963;-75
2023/04/24 11:15:27;;;;;;;3.27;2.70;;;9.80;99.90;;;;;;5012222;28;20449;-75
2023/04/24 11:18:15;;;;;;;1.77;1.40;;;9.90;99.90;;;;;;5015377;28;20552;-76
2023/04/24 11:21:24;;;;;;;2.97;2.13;;;10.10;99.90;;;;;;5028818;28;20744;-75
2023/04/24 11:23:57;;;;;;;8.97;2.70;;;10.00;99.90;;;;;;5014618;28;20499;-75
2023/04/24 11:26:32;;;;;;;6.93;3.00;;;10.10;99.90;;;;;;5015714;28;20537;-76
2023/04/24 11:29:48;;;;;;;6.63;3.57;;;10.10;99.90;;;;;;5014809;28;20879;-76
2023/04/24 11:33:04;;;;;;;3.47;2.63;;;10.00;99.90;;;;;;4892031;29;20440;-75
2023/04/24 11:35:42;;;;;;;2.57;2.37;;;10.10;99.90;;;;;;4927171;29;20831;-75
2023/04/24 11:38:38;;;;;;;4.90;2.60;;;10.10;99.90;;;;;;4924420;29;21032;-75
2023/04/24 11:41:35;;;;;;;4.23;2.27;;;10.20;99.90;;;;;;4934962;29;20431;-74
2023/04/24 11:44:41;;;;;;;3.03;2.63;;;10.40;99.90;;;;;;4926534;29;20596;-75
2023/04/24 11:47:09;;;;;;;6.03;2.33;;;10.40;99.90;;;;;;4924266;29;20617;-74
2023/04/24 11:49:42;;;;;;;3.30;2.50;;;10.60;99.90;;;;;;4921820;29;21017;-74
2023/04/24 11:52:18;;;;;;;3.20;2.30;;;10.60;99.90;;;;;;4923210;29;20460;-75
2023/04/24 11:54:57;;;;;;;3.00;2.03;;;10.80;99.90;;;;;;4944527;28;20467;-76
2023/04/24 11:57:33;;;;;;;8.23;2.40;;;10.90;99.90;;;;;;5009385;28;20565;-74
2023/04/24 12:00:07;;;;;;;7.03;3.30;;;11.00;99.90;;;;;;5016130;28;20525;-73
2023/04/24 12:02:37;;;;;;;3.30;1.83;;;11.20;99.90;;;;;;5015521;28;20454;-74
2023/04/24 12:05:11;;;;;;;7.10;2.83;;;11.40;99.90;;;;;;5015555;28;20542;-74
2023/04/24 12:07:44;;;;;;;2.67;2.23;;;11.30;99.90;;;;;;5011668;28;21227;-76
2023/04/24 12:10:21;;;;;;;5.60;3.20;;;11.30;99.90;;;;;;5015540;28;20429;-75
2023/04/24 12:13:01;;;;;;;5.97;2.40;;;11.60;99.90;;;;;;5014084;28;20898;-74
2023/04/24 12:15:39;;;;;;;6.30;2.90;;;11.90;99.90;;;;;;5009554;28;21156;-73
2023/04/24 12:18:16;;;;;;;5.13;3.30;;;11.80;99.90;;;;;;5014287;28;20492;-72
2023/04/24 12:21:13;;;;;;;3.03;2.43;;;11.40;99.90;;;;;;5014953;28;20505;-74
2023/04/24 12:24:08;;;;;;;10.70;3.30;;;11.30;99.90;;;;;;5012932;28;20475;-75
2023/04/24 12:26:45;;;;;;;;;;;;;;;;;;;;;
2023/04/24 12:29:26;;;;;;;3.20;1.60;;;11.90;99.90;;;;;;5010492;28;20799;-73
2023/04/24 12:34:35;;;;;;;2.27;2.03;;;12.10;99.90;;;;;;5011601;28;20970;-74
2023/04/24 12:37:11;;;;;;;2.53;2.17;;;12.00;99.90;;;;;;5013623;28;20456;-78
2023/04/24 12:39:45;;;;;;;6.00;2.63;;;12.10;99.90;;;;;;4987643;28;20456;-74
2023/04/24 12:42:14;;;;;;;1.50;1.13;;;12.20;99.90;;;;;;4994281;28;20789;-74
2023/04/24 12:44:41;;;;;;;2.43;1.63;;;12.90;99.90;;;;;;5014623;28;20571;-74
2023/04/24 12:47:10;;;;;;;2.77;1.77;;;12.70;99.90;;;;;;5027380;28;20448;-71
2023/04/24 12:49:37;;;;;;;2.53;1.60;;;12.30;99.90;;;;;;5017780;28;20992;-74
2023/04/24 12:52:08;;;;;;;2.07;1.87;;;12.10;99.90;;;;;;4998339;28;20869;-75
2023/04/24 12:54:36;;;;;;;1.93;1.67;;;11.80;99.90;;;;;;5025029;28;20535;-76
2023/04/24 12:57:09;;;;;;;2.50;1.33;;;11.70;99.90;;;;;;4984035;28;20445;-74
2023/04/24 12:59:36;;;;;;;1.50;1.33;;;11.40;99.90;;;;;;5002882;28;20455;-73
2023/04/24 13:02:03;;;;;;;3.50;1.60;;;11.20;99.90;;;;;;5033931;28;20452;-74
2023/04/24 13:04:30;;;;;;;2.87;2.57;;;11.20;99.90;;;;;;5028928;28;20776;-74
2023/04/24 13:06:57;;;;;;;1.50;1.40;;;11.10;99.90;;;;;;5026013;28;20474;-73
2023/04/24 13:09:24;;;;;;;8.90;2.20;;;11.10;99.90;;;;;;5027058;28;20492;-72
2023/04/24 13:11:51;;;;;;;8.70;2.67;;;11.30;99.90;;;;;;5027062;28;20460;-73
2023/04/24 13:14:23;;;;;;;2.60;1.83;;;11.50;99.90;;;;;;5029151;28;20754;-71
2023/04/24 13:16:53;;;;;;;1.83;1.63;;;11.60;99.90;;;;;;5030123;28;20457;-74
2023/04/24 13:19:20;;;;;;;2.43;1.97;;;11.60;99.90;;;;;;4952566;28;20506;-72
2023/04/24 13:21:47;;;;;;;3.63;2.03;;;11.70;99.90;;;;;;5010129;28;20469;-74
2023/04/24 13:24:15;;;;;;;5.90;1.63;;;11.50;99.90;;;;;;5012926;28;20477;-76
2023/04/24 13:26:42;;;;;;;2.10;1.90;;;11.50;99.90;;;;;;5015457;28;20846;-74
2023/04/24 13:29:09;;;;;;;4.03;2.10;;;11.30;99.90;;;;;;5020805;28;20483;-72
2023/04/24 13:31:38;;;;;;;2.87;1.90;;;11.20;99.90;;;;;;5011694;28;20695;-74
2023/04/24 13:34:05;;;;;;;4.63;1.43;;;10.90;99.90;;;;;;5207970;23;21019;-73
2023/04/24 13:36:32;;;;;;;3.20;2.57;;;10.80;99.90;;;;;;5024359;28;20897;-74
2023/04/24 13:38:59;;;;;;;3.67;1.57;;;11.00;99.90;;;;;;5023592;28;20457;-72
2023/04/24 13:41:27;;;;;;;2.00;1.80;;;10.90;99.90;;;;;;5019805;28;20494;-73
2023/04/24 13:43:53;;;;;;;1.60;1.50;;;11.00;99.90;;;;;;5004753;28;20483;-74
2023/04/24 13:46:21;;;;;;;1.33;0.97;;;11.10;99.90;;;;;;5009102;28;20509;-74
2023/04/24 13:48:50;;;;;;;1.80;1.53;;;11.20;99.90;;;;;;5006084;28;20515;-74
2023/04/24 13:51:18;;;;;;;3.50;1.80;;;11.20;99.90;;;;;;5007394;28;20494;-74